Flugplatz Baden-Oos

Für EDTB sind keine METAR/TAF Berichte vorhanden.
Es werden die Flugwettermeldungen vom Flugplatz Karlsruhe Baden-Baden in 7 km Entfernung angezeigt.

Bericht für EDSB

vom 31.05. um 10:50 UTC

Wind 13 kt aus 30°

Sichtweite 10 km oder mehr

gute Sicht, keine Wolken < 5000 ft, keine CB, keine Wettererscheinungen (CAVOK)

Temperatur 20.0°C

Taupunkt 5.0°C

Luftfeuchtigkeit 37%

Luftdruck 1019 hPa

EDSB 311050Z 03013KT 340V060 CAVOK 20/05 Q1019

Prognose für EDSB

vom 31.05. um 05:00 UTC

Zwischen 06:00 UTC und 06:00 UTC

Wind 7 kt aus 30°

Sichtweite 10 km oder mehr

keine signifikanten Wettererscheinungen

keine Wolken


Zwischen 06:00 und 09:00 UTC übergehend zu

Wind 12 kt aus 20°

Sichtweite 10 km oder mehr

keine signifikanten Wettererscheinungen

keine Wolken


Zwischen 18:00 und 21:00 UTC übergehend zu

Wind 7 kt aus 40°

Sichtweite 10 km oder mehr

keine signifikanten Wettererscheinungen

keine Wolken

TAF EDSB 310500Z 3106/0106 03007KT CAVOK BECMG 3106/3109 02012KT BECMG 3118/3121 04007KT
Impressum